Ellwood City, PA

2:59 PM EST on January 22, 2017 (GMT -0500)
MD5160 | | Change Station

Elev 892 ft 40.87 °N, 80.28 °W | Updated 43 minutes ago

Mostly Cloudy
Mostly Cloudy
60.0 °F
Feels Like 60.0 °F
N
0.0
Wind Variable Wind from ENE
Gusts 3.0 mph

Today
High -- | Low -- °F
--% Chance of Precip.
Yesterday
High -- | Low -- °F
Precip. -- in
Pressure 29.61 in
Visibility 10.0 miles
Clouds Mostly Cloudy 12000 ft
Dew Point 54 °F
Humidity 80%
Rainfall 0.15 in
Snow Depth Not available.
7:39 AM 5:26 PM
Waning Crescent, 24% visible
METAR KUCP 221956Z AUTO 02006KT 10SM BKN120 15/11 A2957 RMK AO2 SLP027 T01500106 $
Pressure 29.61 in
Visibility 10.0 miles
Clouds Mostly Cloudy 12000 ft
Dew Point 54 °F
Humidity 80%
Rainfall 0.15 in
Snow Depth Not available.
7:39 AM 5:26 PM
Waning Crescent, 24% visible
METAR KUCP 221956Z AUTO 02006KT 10SM BKN120 15/11 A2957 RMK AO2 SLP027 T01500106 $

Get Your Daily Forecast Email!

Thanks for signing up!

Be on the lookout for a verification email in your inbox.

You'll start receiving the daily forecast at 8 AM.

×

10-Day Weather Forecast

Almanac

Astronomy

Jan. 22, 2017 Rise Set
Actual Time
Civil Twilight
Nautical Twilight
Astronomical Twilight
Moon
Length of Visible Light
Length of Day
Tomorrow will be .
, % of the Moon is Illuminated

Today's Extremes

State Highs State Lows

Community

WunderPhotos

Upload Photos

1,962,540 photos uploaded!

WunderBlog® & News

Nearby

Air Quality

  Air Quality AQ Index Pollutant
Not available.

Snow Depth

Station Depth Elevation

Earthquake Activity

City Distance Mag. Time & Date
Minimum magnitude displayed is 2.5.

Coastal Water Temperatures

Place Temperature

Stations

Nearby Weather Stations

Station Location Temp. Windchill Dew Point Humidity Wind Precip. Elev Updated Type
                   

Watches & Warnings

There are currently no watches in effect.